Time;durP1;ratioP1;P1;durP2;ratioP2;P2;SDS_P1;SDS_P2;PMS_P1;PMS_P2;Temp;Humidity;BMP_temperature;BMP_pressure;BME280_temperature;BME280_humidity;BME280_pressure;Samples;Min_cycle;Max_cycle;Signal;HPM_P1;HPM_P2
2021/03/31 00:00:54;;;;;;;48.63;26.88;;;282.20;2278.40;;;;;;4989724;28;20030;-83
2021/03/31 00:03:26;;;;;;;86.38;43.65;;;282.30;2278.40;;;;;;5002272;28;20030;-84
2021/03/31 00:06:07;;;;;;;67.55;34.75;;;282.20;2278.40;;;;;;4989633;28;20089;-85
2021/03/31 00:09:09;;;;;;;53.70;32.63;;;282.30;2278.40;;;;;;5011397;28;20097;-85
2021/03/31 00:11:45;;;;;;;91.88;42.35;;;282.10;2278.40;;;;;;5033427;28;20044;-83
2021/03/31 00:14:20;;;;;;;84.13;39.38;;;282.00;2278.40;;;;;;5017554;28;20034;-83
2021/03/31 00:17:51;;;;;;;;;;;;;;;;;;;;;
2021/03/31 00:20:45;;;;;;;47.00;27.10;;;282.00;2278.40;;;;;;4931976;29;20524;-84
2021/03/31 00:38:28;;;;;;;40.53;24.98;;;281.60;2278.40;;;;;;4783768;29;20041;-83
2021/03/31 00:41:08;;;;;;;40.20;24.08;;;256.80;2252.80;;;;;;4846704;29;20038;-83
2021/03/31 00:44:20;;;;;;;;;;;;;;;;;;;;;
2021/03/31 00:46:55;;;;;;;34.43;23.27;;;256.60;2252.80;;;;;;5014080;28;20466;-83
2021/03/31 00:49:38;;;;;;;36.55;23.45;;;256.60;2252.80;;;;;;4995266;28;20081;-83
2021/03/31 00:52:19;;;;;;;34.83;19.70;;;256.40;2252.80;;;;;;4993702;28;20023;-82
2021/03/31 00:54:48;;;;;;;38.28;23.17;;;256.30;2252.80;;;;;;5014117;28;20259;-82
2021/03/31 00:57:20;;;;;;;90.13;52.85;;;256.30;2252.80;;;;;;5004028;28;20026;-83
2021/03/31 01:03:19;;;;;;;113.97;67.38;;;256.30;2252.80;;;;;;4956986;28;20080;-84
2021/03/31 01:05:46;;;;;;;85.88;51.30;;;256.00;2252.80;;;;;;4999213;28;20072;-83
2021/03/31 01:12:10;;;;;;;;;;;;;;;;;;;;;
2021/03/31 01:15:41;;;;;;;59.17;36.55;;;256.30;2252.80;;;;;;5017141;28;20388;-84
2021/03/31 01:18:55;;;;;;;56.13;33.75;;;256.30;2252.80;;;;;;4955147;28;20106;-84
2021/03/31 01:22:37;;;;;;;;;;;;;;;;;;;;;
2021/03/31 01:26:27;;;;;;;57.20;34.92;;;256.10;2252.80;;;;;;4947621;28;20092;-84
2021/03/31 01:29:08;;;;;;;55.25;32.25;;;256.00;2252.80;;;;;;5000607;28;20021;-83
2021/03/31 01:32:47;;;;;;;42.63;26.00;;;256.10;2252.80;;;;;;4997752;28;20030;-83
2021/03/31 01:36:03;;;;;;;48.65;28.35;;;231.30;2252.80;;;;;;4997827;28;20033;-84
2021/03/31 01:38:29;;;;;;;44.80;27.10;;;231.20;2252.80;;;;;;5015492;28;20030;-84
2021/03/31 01:41:21;;;;;;;38.42;24.23;;;231.00;2252.80;;;;;;5014867;28;20068;-84
2021/03/31 01:44:25;;;;;;;50.15;32.00;;;231.00;2252.80;;;;;;5005636;28;20057;-84
2021/03/31 01:47:32;;;;;;;55.53;32.47;;;230.90;2252.80;;;;;;5015514;28;20030;-82
2021/03/31 01:50:41;;;;;;;46.83;28.67;;;230.90;2252.80;;;;;;4877802;29;20092;-84
2021/03/31 01:54:02;;;;;;;50.65;28.90;;;230.80;2252.80;;;;;;4841159;29;20034;-83
2021/03/31 01:56:37;;;;;;;42.95;28.25;;;230.90;2252.80;;;;;;4813580;29;20030;-84
2021/03/31 01:59:52;;;;;;;54.30;33.45;;;230.80;2252.80;;;;;;4844192;29;20042;-83
2021/03/31 02:02:52;;;;;;;46.77;30.73;;;230.70;2252.80;;;;;;4841558;29;20059;-84
2021/03/31 02:06:48;;;;;;;46.63;30.80;;;230.60;2252.80;;;;;;4841014;29;20149;-83
2021/03/31 02:10:48;;;;;;;51.85;33.70;;;230.40;2252.80;;;;;;4805909;29;20085;-83
2021/03/31 02:14:06;;;;;;;50.00;31.60;;;230.40;2252.80;;;;;;4824060;29;20434;-83
2021/03/31 02:16:40;;;;;;;54.55;32.85;;;230.40;2252.80;;;;;;4808759;29;20036;-83
2021/03/31 02:19:57;;;;;;;53.45;32.72;;;230.40;2252.80;;;;;;4814042;29;20039;-83
2021/03/31 02:23:22;;;;;;;51.67;31.88;;;230.50;2252.80;;;;;;4877824;29;20037;-81
2021/03/31 02:26:46;;;;;;;61.80;35.45;;;230.40;2252.80;;;;;;4856996;29;20083;-83
2021/03/31 02:30:12;;;;;;;55.55;32.95;;;230.40;2252.80;;;;;;4792609;29;20428;-84
2021/03/31 02:33:28;;;;;;;49.75;28.75;;;230.40;2252.80;;;;;;4770977;30;20039;-84
2021/03/31 02:37:15;;;;;;;41.42;25.73;;;230.40;2252.80;;;;;;4787373;29;20027;-83
2021/03/31 02:40:33;;;;;;;35.83;23.25;;;205.70;2252.80;;;;;;4786967;29;20035;-84
2021/03/31 02:44:03;;;;;;;67.75;33.47;;;205.70;2252.80;;;;;;4772907;29;20040;-85
2021/03/31 02:47:29;;;;;;;91.30;41.72;;;205.70;2252.80;;;;;;4802002;29;20042;-84
2021/03/31 02:51:02;;;;;;;57.25;29.70;;;230.40;2252.80;;;;;;4801798;29;20050;-84
2021/03/31 02:54:15;;;;;;;56.38;30.30;;;230.40;2252.80;;;;;;4804576;29;20134;-85
2021/03/31 02:57:19;;;;;;;60.95;38.03;;;230.40;2252.80;;;;;;4760983;29;20066;-84
2021/03/31 03:00:35;;;;;;;91.50;55.58;;;205.70;2252.80;;;;;;4802368;29;20031;-84
2021/03/31 03:03:44;;;;;;;99.15;62.17;;;205.40;2252.80;;;;;;4806274;29;20037;-81
2021/03/31 03:06:46;;;;;;;100.53;64.57;;;205.30;2252.80;;;;;;4871520;29;20461;-83
2021/03/31 03:09:17;;;;;;;99.85;62.60;;;205.30;2252.80;;;;;;4877713;29;20044;-83
2021/03/31 03:11:47;;;;;;;90.25;54.05;;;205.40;2252.80;;;;;;4863749;29;20129;-83
2021/03/31 03:14:39;;;;;;;85.20;54.78;;;205.40;2252.80;;;;;;4877961;29;20033;-83
2021/03/31 03:17:19;;;;;;;82.22;47.67;;;205.30;2252.80;;;;;;4897084;29;20122;-83
2021/03/31 03:20:21;;;;;;;70.93;41.47;;;205.40;2252.80;;;;;;4987483;28;20034;-84
2021/03/31 03:22:54;;;;;;;78.75;44.85;;;205.30;2252.80;;;;;;4961636;28;20109;-83
2021/03/31 03:25:23;;;;;;;67.15;38.47;;;205.30;2252.80;;;;;;4961402;28;20053;-83
2021/03/31 03:28:00;;;;;;;61.75;36.97;;;205.30;2252.80;;;;;;4992510;28;20057;-82
2021/03/31 03:30:27;;;;;;;57.50;35.67;;;205.20;2252.80;;;;;;4961593;28;20482;-81
2021/03/31 03:32:54;;;;;;;83.75;51.20;;;205.10;2252.80;;;;;;4961009;28;20036;-82
2021/03/31 03:35:25;;;;;;;62.47;38.40;;;205.10;2252.80;;;;;;4976871;28;20040;-83
2021/03/31 03:37:51;;;;;;;67.43;38.30;;;205.10;2252.80;;;;;;4961039;28;20034;-83
2021/03/31 03:40:22;;;;;;;60.22;36.35;;;205.10;2252.80;;;;;;4976862;28;20022;-83
2021/03/31 03:42:48;;;;;;;231.65;130.40;;;205.20;2252.80;;;;;;4976627;28;20030;-82
2021/03/31 03:45:16;;;;;;;280.30;157.13;;;205.10;2252.80;;;;;;4976689;28;20398;-83
2021/03/31 03:47:46;;;;;;;107.45;63.78;;;180.10;2252.80;;;;;;4976774;28;20027;-85
2021/03/31 03:50:17;;;;;;;86.50;51.03;;;180.10;2252.80;;;;;;4960786;28;20081;-86
2021/03/31 03:52:49;;;;;;;60.22;42.92;;;180.10;2252.80;;;;;;4960069;28;20027;-80
2021/03/31 03:55:27;;;;;;;56.50;34.88;;;179.80;2252.80;;;;;;4959599;28;20089;-81
2021/03/31 03:57:54;;;;;;;51.65;30.88;;;179.60;2252.80;;;;;;4973136;28;20026;-78
2021/03/31 04:00:24;;;;;;;54.38;31.48;;;179.90;2252.80;;;;;;4975804;28;20113;-80
2021/03/31 04:02:54;;;;;;;61.13;35.28;;;179.90;2252.80;;;;;;4976606;28;20390;-77
2021/03/31 04:05:21;;;;;;;65.22;37.95;;;179.90;2252.80;;;;;;4976589;28;20097;-80
2021/03/31 04:07:48;;;;;;;67.50;41.90;;;179.80;2252.80;;;;;;5006480;28;20121;-81
2021/03/31 04:10:16;;;;;;;70.68;41.38;;;179.80;2252.80;;;;;;4995589;28;20053;-79
2021/03/31 04:12:46;;;;;;;61.55;36.75;;;179.70;2252.80;;;;;;5013485;28;20032;-81
2021/03/31 04:15:14;;;;;;;46.75;26.13;;;179.70;2252.80;;;;;;4995712;28;20073;-78
2021/03/31 04:17:43;;;;;;;44.65;28.67;;;179.70;2252.80;;;;;;4996024;28;20036;-82
2021/03/31 04:20:16;;;;;;;49.50;29.67;;;179.70;2252.80;;;;;;4995901;28;20390;-82
2021/03/31 04:22:48;;;;;;;49.15;30.75;;;179.70;2252.80;;;;;;5012881;28;20030;-81
2021/03/31 04:25:16;;;;;;;59.08;38.92;;;179.60;2252.80;;;;;;4995489;28;20053;-84
2021/03/31 04:27:45;;;;;;;55.13;33.25;;;179.70;2252.80;;;;;;4979540;28;20057;-81
2021/03/31 04:30:13;;;;;;;50.97;31.52;;;179.90;2252.80;;;;;;4981014;28;20034;-82
2021/03/31 04:32:46;;;;;;;60.78;34.95;;;179.90;2252.80;;;;;;4986874;28;20142;-79
2021/03/31 04:35:13;;;;;;;;;;;180.00;2252.80;;;;;;5003029;28;20097;-83
2021/03/31 04:37:39;;;;;;;69.93;42.33;;;180.10;2252.80;;;;;;4999582;28;19912;-81
2021/03/31 04:40:12;;;;;;;67.72;42.40;;;180.10;2252.80;;;;;;5016858;28;20080;-84
2021/03/31 04:42:38;;;;;;;74.28;44.15;;;179.80;2252.80;;;;;;4999443;28;20037;-79
2021/03/31 04:45:09;;;;;;;78.85;49.88;;;179.70;2252.80;;;;;;4980985;28;20030;-80
2021/03/31 04:47:38;;;;;;;77.32;50.78;;;179.80;2252.80;;;;;;4999224;28;20504;-81
2021/03/31 04:50:10;;;;;;;79.63;48.47;;;179.70;2252.80;;;;;;4981877;28;20034;-81
2021/03/31 04:52:37;;;;;;;81.88;48.30;;;179.50;2252.80;;;;;;4999806;28;20022;-82
2021/03/31 04:55:04;;;;;;;118.28;67.45;;;179.40;2252.80;;;;;;4999573;28;20029;-80
2021/03/31 04:57:30;;;;;;;136.88;80.57;;;179.30;2252.80;;;;;;5001856;28;20026;-80
2021/03/31 04:59:56;;;;;;;124.35;73.70;;;179.20;2252.80;;;;;;5006209;28;20130;-80
2021/03/31 05:02:22;;;;;;;76.80;52.40;;;179.30;2252.80;;;;;;5006203;28;20511;-80
2021/03/31 05:04:49;;;;;;;76.40;53.30;;;154.50;2252.80;;;;;;5002942;28;20033;-79
2021/03/31 05:07:15;;;;;;;74.38;52.35;;;154.40;2252.80;;;;;;4998597;28;20053;-80
2021/03/31 05:09:41;;;;;;;73.78;50.13;;;154.40;2252.80;;;;;;4998908;28;20029;-79
2021/03/31 05:12:33;;;;;;;75.15;49.25;;;154.50;2252.80;;;;;;4998991;28;20077;-81
2021/03/31 05:15:30;;;;;;;67.65;43.70;;;179.30;2252.80;;;;;;5015071;28;20030;-83
2021/03/31 05:18:17;;;;;;;61.35;39.67;;;179.40;2252.80;;;;;;4997800;28;20030;-82
2021/03/31 05:20:57;;;;;;;64.10;40.95;;;179.30;2252.80;;;;;;4975455;28;20042;-80
2021/03/31 05:23:26;;;;;;;58.88;37.03;;;179.20;2252.80;;;;;;4957854;28;20034;-81
2021/03/31 05:25:53;;;;;;;53.28;37.30;;;179.20;2252.80;;;;;;4940460;28;20073;-82
2021/03/31 05:28:24;;;;;;;65.05;39.28;;;179.20;2252.80;;;;;;4973710;28;20573;-82
2021/03/31 05:31:17;;;;;;;66.10;40.20;;;179.20;2252.80;;;;;;4975024;28;20034;-81
2021/03/31 05:33:44;;;;;;;59.65;38.83;;;179.20;2252.80;;;;;;4943637;28;20510;-81
2021/03/31 05:36:13;;;;;;;60.00;39.00;;;179.30;2252.80;;;;;;4974532;28;20431;-81
2021/03/31 05:38:39;;;;;;;75.78;48.30;;;179.40;2252.80;;;;;;4959565;28;20475;-81
2021/03/31 05:41:07;;;;;;;75.45;47.47;;;179.40;2252.80;;;;;;4941505;28;20102;-81
2021/03/31 05:43:35;;;;;;;72.07;42.95;;;179.40;2252.80;;;;;;4958710;28;20431;-81
2021/03/31 05:46:19;;;;;;;64.20;42.17;;;179.40;2252.80;;;;;;4974717;28;20023;-81
2021/03/31 05:48:54;;;;;;;78.53;49.38;;;179.40;2252.80;;;;;;4959357;28;20134;-82
2021/03/31 05:51:26;;;;;;;63.08;39.22;;;179.40;2252.80;;;;;;4975021;28;20027;-82
2021/03/31 05:53:52;;;;;;;49.22;32.75;;;179.40;2252.80;;;;;;4974710;28;20101;-80
2021/03/31 05:56:21;;;;;;;61.85;38.65;;;179.40;2252.80;;;;;;4974131;28;20046;-80
2021/03/31 05:59:25;;;;;;;54.75;32.90;;;179.40;2252.80;;;;;;4968857;28;20042;-83
2021/03/31 06:02:16;;;;;;;51.95;39.00;;;179.40;2252.80;;;;;;4917383;29;20073;-79
2021/03/31 06:04:53;;;;;;;54.42;38.95;;;179.40;2252.80;;;;;;4972589;28;20100;-79
2021/03/31 06:07:20;;;;;;;65.13;40.47;;;179.50;2252.80;;;;;;4974183;28;20565;-79
2021/03/31 06:10:09;;;;;;;62.25;41.20;;;179.40;2252.80;;;;;;4973862;28;20514;-81
2021/03/31 06:12:44;;;;;;;71.63;43.67;;;179.50;2252.80;;;;;;4974240;28;20550;-82
2021/03/31 06:15:24;;;;;;;101.65;60.47;;;179.60;2252.80;;;;;;4958161;28;20034;-77
2021/03/31 06:17:56;;;;;;;79.13;43.92;;;179.60;2252.80;;;;;;4990591;28;20115;-79
2021/03/31 06:20:45;;;;;;;125.82;69.35;;;179.70;2252.80;;;;;;5015384;28;20025;-80
2021/03/31 06:23:35;;;;;;;126.25;59.38;;;179.60;2252.80;;;;;;4997238;28;20835;-76
2021/03/31 06:26:15;;;;;;;93.53;51.80;;;179.70;2252.80;;;;;;5015210;28;20354;-76
2021/03/31 06:28:42;;;;;;;102.15;64.43;;;179.90;2252.80;;;;;;4998050;28;20378;-78
2021/03/31 06:31:13;;;;;;;74.45;48.10;;;179.90;2252.80;;;;;;4997249;28;20091;-77
2021/03/31 06:33:41;;;;;;;95.03;59.47;;;179.90;2252.80;;;;;;4997524;28;20061;-74
2021/03/31 06:36:09;;;;;;;85.45;51.75;;;179.90;2252.80;;;;;;4997445;28;20466;-74
2021/03/31 06:38:39;;;;;;;86.80;49.53;;;179.90;2252.80;;;;;;5014969;28;20104;-75
2021/03/31 06:41:15;;;;;;;46.03;31.10;;;179.90;2252.80;;;;;;4997694;28;20121;-75
2021/03/31 06:43:54;;;;;;;52.65;33.55;;;179.90;2252.80;;;;;;5015017;28;20370;-75
2021/03/31 06:46:32;;;;;;;65.28;42.55;;;204.80;2252.80;;;;;;4997483;28;20455;-75
2021/03/31 06:49:00;;;;;;;68.57;42.95;;;205.00;2252.80;;;;;;5014633;28;20040;-81
2021/03/31 06:51:31;;;;;;;66.32;46.28;;;205.20;2252.80;;;;;;4996590;28;20111;-75
2021/03/31 06:54:17;;;;;;;70.22;44.45;;;205.40;2252.80;;;;;;5012139;28;20543;-77
2021/03/31 06:56:45;;;;;;;72.68;49.38;;;205.70;2252.80;;;;;;4994997;28;20029;-77
2021/03/31 06:59:12;;;;;;;81.25;51.00;;;230.40;2252.80;;;;;;5012781;28;20034;-78
2021/03/31 07:01:40;;;;;;;89.15;53.40;;;230.60;2252.80;;;;;;4995238;28;20619;-78
2021/03/31 07:04:07;;;;;;;78.35;53.25;;;230.60;2252.80;;;;;;5012492;28;20112;-78
2021/03/31 07:06:34;;;;;;;89.03;61.50;;;230.80;2252.80;;;;;;5013499;28;20052;-78
2021/03/31 07:09:00;;;;;;;89.90;63.65;;;230.80;2252.80;;;;;;5014790;28;20109;-79
2021/03/31 07:11:37;;;;;;;93.57;62.47;;;230.90;2252.80;;;;;;4996958;28;20050;-77
2021/03/31 07:14:04;;;;;;;103.40;76.47;;;231.00;2252.80;;;;;;5014212;28;20026;-77
2021/03/31 07:16:32;;;;;;;85.65;59.42;;;230.90;2252.80;;;;;;5014438;28;20026;-76
2021/03/31 07:18:58;;;;;;;76.63;51.70;;;231.00;2252.80;;;;;;4996213;28;20057;-78
2021/03/31 07:21:25;;;;;;;65.90;45.28;;;256.20;2252.80;;;;;;4996563;28;20381;-77
2021/03/31 07:23:51;;;;;;;56.08;40.42;;;231.20;2252.80;;;;;;4996612;28;20128;-76
2021/03/31 07:26:20;;;;;;;67.75;48.40;;;231.30;2252.80;;;;;;5014053;28;20022;-75
2021/03/31 07:28:49;;;;;;;67.65;45.90;;;256.10;2252.80;;;;;;4996595;28;20377;-75
2021/03/31 07:31:20;;;;;;;61.20;43.17;;;256.20;2252.80;;;;;;5014298;28;20017;-75
2021/03/31 07:33:54;;;;;;;67.40;45.70;;;256.20;2252.80;;;;;;5014307;28;20022;-76
2021/03/31 07:36:21;;;;;;;46.58;33.75;;;256.40;2252.80;;;;;;4996853;28;20325;-75
2021/03/31 07:38:48;;;;;;;40.40;28.13;;;256.60;2252.80;;;;;;4996978;28;20457;-75
2021/03/31 07:41:15;;;;;;;39.50;25.23;;;256.80;2252.80;;;;;;5013590;28;20050;-75
2021/03/31 07:43:44;;;;;;;48.70;28.40;;;281.60;2278.40;;;;;;5012501;28;20065;-77
2021/03/31 07:46:34;;;;;;;39.13;26.15;;;281.80;2278.40;;;;;;4997895;28;20042;-76
2021/03/31 07:49:01;;;;;;;35.70;24.08;;;282.00;2278.40;;;;;;5013054;28;20034;-76
2021/03/31 07:51:36;;;;;;;37.17;21.25;;;282.20;2278.40;;;;;;5014980;28;20033;-75
2021/03/31 07:54:03;;;;;;;33.70;21.98;;;282.30;2278.40;;;;;;4997050;28;20133;-78
2021/03/31 07:56:39;;;;;;;30.00;21.10;;;307.20;2304.00;;;;;;5014336;28;20032;-77
2021/03/31 07:59:06;;;;;;;24.52;17.50;;;307.20;2304.00;;;;;;5014042;28;20030;-76
2021/03/31 08:01:32;;;;;;;30.38;19.95;;;307.40;2201.60;;;;;;4996376;28;20095;-76
2021/03/31 08:04:00;;;;;;;34.08;18.20;;;307.20;2099.20;;;;;;4996266;28;20026;-77
2021/03/31 08:06:36;;;;;;;27.00;17.58;;;307.70;2099.20;;;;;;4999259;28;20030;-76
2021/03/31 08:09:10;;;;;;;23.52;15.15;;;307.90;2073.60;;;;;;4999887;28;20041;-77
2021/03/31 08:11:39;;;;;;;25.88;18.60;;;307.90;2073.60;;;;;;5017922;28;20068;-78
2021/03/31 08:14:10;;;;;;;25.10;16.92;;;308.10;1971.20;;;;;;5016803;28;20473;-78
2021/03/31 08:16:55;;;;;;;28.17;14.50;;;332.90;1843.20;;;;;;5017521;28;20029;-79
2021/03/31 08:19:24;;;;;;;24.25;15.05;;;332.90;1740.80;;;;;;5016407;28;20557;-77
2021/03/31 08:21:53;;;;;;;22.42;15.00;;;333.00;1766.40;;;;;;4999762;28;20030;-77
2021/03/31 08:24:38;;;;;;;20.92;14.13;;;333.10;1792.00;;;;;;5000123;28;20068;-78
2021/03/31 08:27:07;;;;;;;21.90;15.75;;;333.30;1689.60;;;;;;5017317;28;20018;-77
2021/03/31 08:29:42;;;;;;;25.02;15.35;;;333.50;1638.40;;;;;;5017226;28;20037;-76
2021/03/31 08:32:10;;;;;;;22.25;15.95;;;333.60;1638.40;;;;;;5017765;28;20022;-78
2021/03/31 08:34:37;;;;;;;26.08;16.63;;;333.60;1536.00;;;;;;5000028;28;20108;-78
2021/03/31 08:37:06;;;;;;;24.45;17.10;;;333.70;1561.60;;;;;;4999682;28;20030;-79
2021/03/31 08:39:53;;;;;;;19.10;13.90;;;333.70;1587.20;;;;;;5017357;28;20033;-77
2021/03/31 08:42:20;;;;;;;21.90;14.23;;;333.70;1561.60;;;;;;4999582;28;20026;-80
2021/03/31 08:44:55;;;;;;;22.90;15.45;;;358.40;1536.00;;;;;;5015348;28;20076;-77
2021/03/31 08:47:24;;;;;;;23.40;17.05;;;358.50;1510.40;;;;;;5017005;28;20029;-78
2021/03/31 08:49:59;;;;;;;16.08;10.30;;;358.70;1484.80;;;;;;5000147;28;20093;-79
2021/03/31 08:52:32;;;;;;;22.08;12.60;;;358.80;1408.00;;;;;;4999489;28;20026;-80
2021/03/31 08:54:59;;;;;;;23.88;17.48;;;358.90;1433.60;;;;;;5016869;28;20018;-78
2021/03/31 08:57:27;;;;;;;19.58;10.30;;;359.00;1459.20;;;;;;5016697;28;20026;-78
2021/03/31 08:59:58;;;;;;;16.08;10.05;;;359.20;1382.40;;;;;;4999334;28;20034;-78
2021/03/31 09:02:30;;;;;;;16.55;8.77;;;359.20;1356.80;;;;;;5015601;28;20045;-79
2021/03/31 09:04:57;;;;;;;13.88;10.02;;;359.30;1305.60;;;;;;5016283;28;20450;-78
2021/03/31 09:07:24;;;;;;;15.23;9.43;;;384.00;1331.20;;;;;;5014296;28;20052;-79
2021/03/31 09:09:50;;;;;;;21.13;10.70;;;384.10;1331.20;;;;;;4992877;28;20512;-75
2021/03/31 09:12:22;;;;;;;19.65;11.77;;;384.20;1331.20;;;;;;4990190;28;20445;-74
2021/03/31 09:14:50;;;;;;;15.50;8.45;;;384.40;1305.60;;;;;;5012159;28;20030;-75
2021/03/31 09:17:21;;;;;;;16.33;10.57;;;384.40;1305.60;;;;;;5008092;28;20030;-74
2021/03/31 09:19:50;;;;;;;13.43;8.95;;;384.60;1305.60;;;;;;4992495;28;20516;-74
2021/03/31 09:22:18;;;;;;;18.08;9.63;;;384.70;1280.00;;;;;;5014418;28;20536;-73
2021/03/31 09:24:55;;;;;;;17.45;9.15;;;384.80;1280.00;;;;;;4996958;28;20401;-76
2021/03/31 09:27:27;;;;;;;15.02;8.27;;;409.60;1305.60;;;;;;5011665;28;20076;-75
2021/03/31 09:29:54;;;;;;;13.77;7.85;;;409.60;1280.00;;;;;;4992059;28;20393;-77
2021/03/31 09:32:33;;;;;;;43.85;28.20;;;409.70;1254.40;;;;;;4995493;28;20033;-76
2021/03/31 09:35:15;;;;;;;12.32;7.10;;;409.70;1280.00;;;;;;5011845;28;20026;-77
2021/03/31 09:37:42;;;;;;;;;;;409.70;1254.40;;;;;;4997021;28;20425;-76
2021/03/31 09:40:09;;;;;;;16.85;9.98;;;409.90;1254.40;;;;;;4995830;28;19916;-74
2021/03/31 09:42:39;;;;;;;11.25;8.40;;;410.10;1254.40;;;;;;4993001;28;20034;-73
2021/03/31 09:45:10;;;;;;;16.25;10.77;;;410.10;1254.40;;;;;;5013038;28;20052;-79
2021/03/31 09:47:37;;;;;;;10.35;7.10;;;435.20;1228.80;;;;;;5012299;28;20153;-74
2021/03/31 09:50:12;;;;;;;15.80;9.90;;;410.20;1228.80;;;;;;4995033;28;20048;-78
2021/03/31 09:52:39;;;;;;;16.00;10.02;;;410.20;1228.80;;;;;;5010117;28;20033;-78
2021/03/31 09:55:12;;;;;;;14.25;9.40;;;410.30;1203.20;;;;;;4995172;28;20028;-78
2021/03/31 09:57:40;;;;;;;16.38;10.63;;;410.50;1203.20;;;;;;4996849;28;20026;-79
2021/03/31 10:00:11;;;;;;;20.33;9.32;;;435.20;1203.20;;;;;;5015261;28;20476;-76
2021/03/31 10:02:41;;;;;;;15.20;8.83;;;435.30;1203.20;;;;;;5015686;28;20026;-76
2021/03/31 10:05:10;;;;;;;13.95;7.80;;;435.40;1177.60;;;;;;4994469;28;20311;-79
2021/03/31 10:07:36;;;;;;;16.48;9.52;;;435.50;1177.60;;;;;;4991113;28;20050;-78
2021/03/31 10:10:04;;;;;;;22.15;9.95;;;435.80;1177.60;;;;;;4990926;28;20481;-78
2021/03/31 10:12:32;;;;;;;62.28;15.38;;;436.10;1152.00;;;;;;4995092;28;20036;-78
2021/03/31 10:15:00;;;;;;;12.98;7.47;;;460.80;1177.60;;;;;;5014069;28;20022;-77
2021/03/31 10:17:28;;;;;;;784.83;109.72;;;436.10;1126.40;;;;;;4989151;28;20417;-82
2021/03/31 10:20:14;;;;;;;45.38;11.60;;;460.80;1152.00;;;;;;4994870;28;20078;-83
2021/03/31 10:22:41;;;;;;;27.95;9.52;;;461.00;1152.00;;;;;;4994121;28;20535;-81
2021/03/31 10:25:21;;;;;;;36.10;10.35;;;461.00;1152.00;;;;;;4990874;28;20022;-82
2021/03/31 10:27:48;;;;;;;302.60;42.92;;;461.20;1152.00;;;;;;5014568;28;20030;-81
2021/03/31 10:30:26;;;;;;;1086.03;168.57;;;461.30;1126.40;;;;;;4997006;28;20041;-79
2021/03/31 10:32:52;;;;;;;385.08;45.60;;;461.50;1126.40;;;;;;4995495;28;20030;-81
2021/03/31 10:35:50;;;;;;;105.15;19.40;;;461.60;1126.40;;;;;;4994336;28;20034;-81
2021/03/31 10:38:29;;;;;;;23.02;8.75;;;486.40;1100.80;;;;;;5010733;28;20118;-81
2021/03/31 10:49:32;;;;;;;19.05;11.68;;;486.70;1177.60;;;;;;5006960;28;20048;-81
2021/03/31 10:52:04;;;;;;;12.45;6.97;;;486.80;1177.60;;;;;;4994674;28;20426;-78
2021/03/31 10:54:30;;;;;;;18.02;9.95;;;486.80;1126.40;;;;;;4992848;28;20033;-78
2021/03/31 10:57:11;;;;;;;19.67;8.95;;;487.10;1177.60;;;;;;4992191;28;20383;-78
2021/03/31 10:59:37;;;;;;;18.83;9.85;;;487.20;1126.40;;;;;;4991965;28;20362;-83
2021/03/31 11:02:03;;;;;;;14.43;8.52;;;512.00;1126.40;;;;;;4995938;28;20026;-79
2021/03/31 11:04:29;;;;;;;17.33;8.27;;;512.90;1075.20;;;;;;4995195;28;20029;-81
2021/03/31 11:06:55;;;;;;;13.15;8.30;;;512.50;1075.20;;;;;;4995723;28;20456;-80
2021/03/31 11:09:21;;;;;;;13.48;7.47;;;512.60;1075.20;;;;;;5013930;28;20096;-81
2021/03/31 11:11:47;;;;;;;12.20;7.85;;;512.90;998.40;;;;;;4996690;28;20029;-81
2021/03/31 11:14:13;;;;;;;13.10;7.80;;;537.80;1049.60;;;;;;4995508;28;20038;-81
2021/03/31 11:16:46;;;;;;;9.48;7.50;;;537.90;1075.20;;;;;;4997380;28;20462;-80
2021/03/31 11:27:17;;;;;;;15.30;8.15;;;538.40;998.40;;;;;;5014741;28;20037;-78
2021/03/31 11:29:43;;;;;;;9.75;6.47;;;563.20;1024.00;;;;;;4996301;28;20034;-78
2021/03/31 11:32:09;;;;;;;14.52;7.20;;;563.20;1024.00;;;;;;4996721;28;20030;-79
2021/03/31 11:34:35;;;;;;;11.02;6.82;;;563.40;998.40;;;;;;5014778;28;20032;-79
2021/03/31 11:37:00;;;;;;;11.98;6.85;;;563.60;998.40;;;;;;4997414;28;20029;-76
2021/03/31 11:39:26;;;;;;;10.77;7.55;;;563.70;972.80;;;;;;4996569;28;20038;-77
2021/03/31 11:41:52;;;;;;;9.90;7.28;;;563.70;947.20;;;;;;4996338;28;20022;-78
2021/03/31 11:44:18;;;;;;;7.93;5.80;;;563.90;998.40;;;;;;4997000;28;20030;-80
2021/03/31 11:46:43;;;;;;;16.98;6.80;;;563.60;972.80;;;;;;5013928;28;20489;-80
2021/03/31 11:49:09;;;;;;;17.63;9.07;;;563.80;972.80;;;;;;5013598;28;20026;-81
2021/03/31 11:51:35;;;;;;;15.05;9.38;;;564.10;972.80;;;;;;4999194;28;20026;-80
2021/03/31 11:54:01;;;;;;;13.70;7.30;;;588.80;947.20;;;;;;4996926;28;20527;-80
2021/03/31 11:56:27;;;;;;;9.80;6.93;;;588.90;947.20;;;;;;5014796;28;20022;-80
2021/03/31 11:58:53;;;;;;;11.60;6.43;;;589.10;921.60;;;;;;5014567;28;20100;-80
2021/03/31 12:01:19;;;;;;;9.57;5.32;;;589.20;947.20;;;;;;4997199;28;20026;-80
2021/03/31 12:03:45;;;;;;;9.35;5.63;;;588.90;947.20;;;;;;4998127;28;20029;-80
2021/03/31 12:06:13;;;;;;;16.60;10.85;;;589.10;921.60;;;;;;4998008;28;20417;-84
2021/03/31 12:08:46;;;;;;;13.10;6.10;;;589.30;972.80;;;;;;5004947;28;20033;-83
2021/03/31 12:11:13;;;;;;;12.15;6.47;;;589.20;947.20;;;;;;4995907;28;20035;-78
2021/03/31 12:13:39;;;;;;;9.90;6.28;;;589.30;972.80;;;;;;4976762;28;20058;-78
2021/03/31 12:16:05;;;;;;;12.93;8.30;;;589.30;896.00;;;;;;4976283;28;20108;-78
2021/03/31 12:18:31;;;;;;;14.50;7.25;;;589.50;921.60;;;;;;5010380;28;20034;-79
2021/03/31 12:20:57;;;;;;;23.15;15.70;;;589.60;896.00;;;;;;5013600;28;20439;-78
2021/03/31 12:23:22;;;;;;;31.98;22.40;;;589.60;870.40;;;;;;4994736;28;20026;-78
2021/03/31 12:25:49;;;;;;;13.52;9.90;;;614.40;921.60;;;;;;4995217;28;20030;-79
2021/03/31 12:28:15;;;;;;;9.27;7.15;;;614.40;921.60;;;;;;5013715;28;20030;-80
2021/03/31 12:30:41;;;;;;;11.10;7.43;;;614.50;921.60;;;;;;4995738;28;20036;-81
2021/03/31 12:33:07;;;;;;;9.02;5.95;;;614.50;870.40;;;;;;4995776;28;20026;-80
2021/03/31 12:35:32;;;;;;;9.43;6.50;;;614.50;870.40;;;;;;5013689;28;20028;-80
2021/03/31 12:37:58;;;;;;;9.50;5.72;;;614.50;870.40;;;;;;4995766;28;20420;-77
2021/03/31 12:40:24;;;;;;;12.02;7.32;;;589.70;896.00;;;;;;4996067;28;20030;-79
2021/03/31 12:42:50;;;;;;;10.73;6.78;;;589.40;896.00;;;;;;4995971;28;20042;-76
2021/03/31 12:45:16;;;;;;;12.88;7.07;;;564.10;921.60;;;;;;5011886;28;20022;-77
2021/03/31 12:47:42;;;;;;;9.68;7.00;;;564.10;972.80;;;;;;5013532;28;20431;-81
2021/03/31 12:50:11;;;;;;;15.60;7.40;;;588.90;947.20;;;;;;4995108;28;20030;-81
2021/03/31 12:53:21;;;;;;;11.85;7.63;;;589.00;896.00;;;;;;4999010;28;20030;-80
2021/03/31 12:55:32;;;;;;;11.88;8.85;;;589.20;896.00;;;;;;5009077;28;20030;-80
2021/03/31 12:58:02;;;;;;;11.07;7.57;;;589.50;896.00;;;;;;5000057;28;20038;-77
2021/03/31 13:00:28;;;;;;;13.25;8.13;;;614.40;921.60;;;;;;4999090;28;20345;-78
2021/03/31 13:02:54;;;;;;;11.38;7.63;;;614.50;896.00;;;;;;4999310;28;20073;-80
2021/03/31 13:05:20;;;;;;;16.10;9.50;;;614.40;870.40;;;;;;5016952;28;20037;-78
2021/03/31 13:07:46;;;;;;;18.35;11.27;;;614.50;870.40;;;;;;5016554;28;20383;-79
2021/03/31 13:10:13;;;;;;;15.80;10.25;;;614.50;870.40;;;;;;5016949;28;20108;-80
2021/03/31 13:25:44;;;;;;;14.48;10.70;;;614.70;844.80;;;;;;5013725;28;20030;-75
2021/03/31 13:28:27;;;;;;;14.13;9.20;;;614.90;844.80;;;;;;4995559;28;20446;-78
2021/03/31 13:31:29;;;;;;;16.27;12.73;;;615.00;844.80;;;;;;4980776;28;20121;-76
2021/03/31 13:33:49;;;;;;;22.85;18.92;;;615.00;844.80;;;;;;4994993;28;20046;-75
2021/03/31 13:39:07;;;;;;;20.88;13.70;;;615.10;870.40;;;;;;4996459;28;20030;-78
2021/03/31 13:41:28;;;;;;;10.77;6.55;;;615.10;844.80;;;;;;4995794;28;20497;-76
2021/03/31 13:43:54;;;;;;;21.90;13.00;;;615.00;844.80;;;;;;4996760;28;20029;-74
2021/03/31 13:46:20;;;;;;;26.60;11.90;;;614.90;819.20;;;;;;4998567;28;20030;-74
2021/03/31 13:52:28;;;;;;;17.15;11.63;;;614.80;870.40;;;;;;5002463;28;20038;-76
2021/03/31 13:54:31;;;;;;;12.45;8.20;;;614.90;844.80;;;;;;5008096;28;20124;-77